sensor_id;sensor_type;location;lat;lon;timestamp;P1;durP1;ratioP1;P2;durP2;ratioP2
67747;SDS011;54543;50.712;6.070;2023-01-30T00:00:53;30.55;;;14.18;;
67747;SDS011;54543;50.712;6.070;2023-01-30T00:03:21;23.02;;;10.57;;
67747;SDS011;54543;50.712;6.070;2023-01-30T00:05:47;26.00;;;10.82;;
67747;SDS011;54543;50.712;6.070;2023-01-30T00:08:13;33.35;;;15.50;;
67747;SDS011;54543;50.712;6.070;2023-01-30T00:10:39;28.45;;;12.07;;
67747;SDS011;54543;50.712;6.070;2023-01-30T00:13:04;31.70;;;13.07;;
67747;SDS011;54543;50.712;6.070;2023-01-30T00:15:30;27.23;;;12.07;;
67747;SDS011;54543;50.712;6.070;2023-01-30T00:17:55;27.85;;;10.90;;
67747;SDS011;54543;50.712;6.070;2023-01-30T00:20:21;23.90;;;10.75;;
67747;SDS011;54543;50.712;6.070;2023-01-30T00:22:46;28.17;;;12.52;;
67747;SDS011;54543;50.712;6.070;2023-01-30T00:25:12;31.45;;;13.32;;
67747;SDS011;54543;50.712;6.070;2023-01-30T00:27:38;23.95;;;11.48;;
67747;SDS011;54543;50.712;6.070;2023-01-30T00:30:03;28.15;;;11.30;;
67747;SDS011;54543;50.712;6.070;2023-01-30T00:32:31;25.42;;;12.60;;
67747;SDS011;54543;50.712;6.070;2023-01-30T00:34:57;27.33;;;11.90;;
67747;SDS011;54543;50.712;6.070;2023-01-30T00:37:22;25.60;;;11.43;;
67747;SDS011;54543;50.712;6.070;2023-01-30T00:39:48;27.75;;;11.70;;
67747;SDS011;54543;50.712;6.070;2023-01-30T00:42:13;25.45;;;10.80;;
67747;SDS011;54543;50.712;6.070;2023-01-30T00:44:57;23.73;;;10.43;;
67747;SDS011;54543;50.712;6.070;2023-01-30T00:47:42;23.90;;;12.45;;
67747;SDS011;54543;50.712;6.070;2023-01-30T00:50:08;22.98;;;10.32;;
67747;SDS011;54543;50.712;6.070;2023-01-30T00:52:33;21.55;;;9.80;;
67747;SDS011;54543;50.712;6.070;2023-01-30T00:54:59;24.05;;;9.40;;
67747;SDS011;54543;50.712;6.070;2023-01-30T00:57:25;36.10;;;14.70;;
67747;SDS011;54543;50.712;6.070;2023-01-30T00:59:50;26.45;;;13.63;;
67747;SDS011;54543;50.712;6.070;2023-01-30T01:02:16;21.92;;;10.88;;
67747;SDS011;54543;50.712;6.070;2023-01-30T01:04:42;24.55;;;11.20;;
67747;SDS011;54543;50.712;6.070;2023-01-30T01:07:10;25.92;;;11.98;;
67747;SDS011;54543;50.712;6.070;2023-01-30T01:09:37;23.45;;;10.10;;
67747;SDS011;54543;50.712;6.070;2023-01-30T01:12:03;25.35;;;9.15;;
67747;SDS011;54543;50.712;6.070;2023-01-30T01:14:29;28.73;;;13.90;;
67747;SDS011;54543;50.712;6.070;2023-01-30T01:16:54;30.85;;;13.23;;
67747;SDS011;54543;50.712;6.070;2023-01-30T01:19:20;31.80;;;14.23;;
67747;SDS011;54543;50.712;6.070;2023-01-30T01:21:46;39.42;;;15.23;;
67747;SDS011;54543;50.712;6.070;2023-01-30T01:24:12;40.65;;;15.32;;
67747;SDS011;54543;50.712;6.070;2023-01-30T01:26:39;27.80;;;11.00;;
67747;SDS011;54543;50.712;6.070;2023-01-30T01:29:05;36.75;;;16.13;;
67747;SDS011;54543;50.712;6.070;2023-01-30T01:31:31;25.08;;;10.80;;
67747;SDS011;54543;50.712;6.070;2023-01-30T01:33:57;29.10;;;12.55;;
67747;SDS011;54543;50.712;6.070;2023-01-30T01:36:22;30.80;;;13.63;;
67747;SDS011;54543;50.712;6.070;2023-01-30T01:38:48;25.92;;;11.85;;
67747;SDS011;54543;50.712;6.070;2023-01-30T01:41:15;27.30;;;11.32;;
67747;SDS011;54543;50.712;6.070;2023-01-30T01:48:55;23.90;;;11.07;;
67747;SDS011;54543;50.712;6.070;2023-01-30T01:54:10;28.38;;;11.65;;
67747;SDS011;54543;50.712;6.070;2023-01-30T01:56:42;29.83;;;12.75;;
67747;SDS011;54543;50.712;6.070;2023-01-30T01:59:22;23.73;;;10.98;;
67747;SDS011;54543;50.712;6.070;2023-01-30T02:01:57;28.70;;;11.82;;
67747;SDS011;54543;50.712;6.070;2023-01-30T02:04:27;21.67;;;10.20;;
67747;SDS011;54543;50.712;6.070;2023-01-30T02:07:15;29.80;;;11.30;;
67747;SDS011;54543;50.712;6.070;2023-01-30T02:09:45;23.88;;;9.93;;
67747;SDS011;54543;50.712;6.070;2023-01-30T02:12:12;25.70;;;11.45;;
67747;SDS011;54543;50.712;6.070;2023-01-30T02:14:38;26.35;;;11.50;;
67747;SDS011;54543;50.712;6.070;2023-01-30T02:17:05;36.13;;;12.60;;
67747;SDS011;54543;50.712;6.070;2023-01-30T02:19:39;31.88;;;14.48;;
67747;SDS011;54543;50.712;6.070;2023-01-30T02:25:44;25.17;;;9.88;;
67747;SDS011;54543;50.712;6.070;2023-01-30T02:31:06;27.58;;;11.48;;
67747;SDS011;54543;50.712;6.070;2023-01-30T02:33:41;32.70;;;13.38;;
67747;SDS011;54543;50.712;6.070;2023-01-30T02:39:22;25.05;;;10.10;;
67747;SDS011;54543;50.712;6.070;2023-01-30T02:44:32;23.70;;;9.73;;
67747;SDS011;54543;50.712;6.070;2023-01-30T02:47:24;24.83;;;10.55;;
67747;SDS011;54543;50.712;6.070;2023-01-30T02:49:59;24.85;;;10.68;;
67747;SDS011;54543;50.712;6.070;2023-01-30T02:52:31;22.23;;;9.30;;
67747;SDS011;54543;50.712;6.070;2023-01-30T02:54:58;26.20;;;10.13;;
67747;SDS011;54543;50.712;6.070;2023-01-30T02:57:24;23.48;;;10.20;;
67747;SDS011;54543;50.712;6.070;2023-01-30T02:59:55;28.30;;;13.43;;
67747;SDS011;54543;50.712;6.070;2023-01-30T03:10:22;30.02;;;11.93;;
67747;SDS011;54543;50.712;6.070;2023-01-30T03:12:49;22.27;;;9.82;;
67747;SDS011;54543;50.712;6.070;2023-01-30T03:17:50;25.43;;;9.83;;
67747;SDS011;54543;50.712;6.070;2023-01-30T03:20:18;29.45;;;12.32;;
67747;SDS011;54543;50.712;6.070;2023-01-30T03:22:44;25.42;;;10.70;;
67747;SDS011;54543;50.712;6.070;2023-01-30T03:25:12;17.70;;;8.27;;
67747;SDS011;54543;50.712;6.070;2023-01-30T03:27:42;21.17;;;9.38;;
67747;SDS011;54543;50.712;6.070;2023-01-30T03:30:09;31.75;;;13.23;;
67747;SDS011;54543;50.712;6.070;2023-01-30T03:32:35;26.40;;;11.52;;
67747;SDS011;54543;50.712;6.070;2023-01-30T03:35:01;27.83;;;12.30;;
67747;SDS011;54543;50.712;6.070;2023-01-30T03:37:26;24.85;;;10.73;;
67747;SDS011;54543;50.712;6.070;2023-01-30T03:39:52;25.60;;;10.98;;
67747;SDS011;54543;50.712;6.070;2023-01-30T03:42:17;23.85;;;9.77;;
67747;SDS011;54543;50.712;6.070;2023-01-30T03:44:43;24.67;;;10.85;;
67747;SDS011;54543;50.712;6.070;2023-01-30T03:47:08;18.30;;;8.63;;
67747;SDS011;54543;50.712;6.070;2023-01-30T03:49:34;17.80;;;8.82;;
67747;SDS011;54543;50.712;6.070;2023-01-30T03:51:59;19.17;;;8.40;;
67747;SDS011;54543;50.712;6.070;2023-01-30T03:54:25;15.65;;;7.60;;
67747;SDS011;54543;50.712;6.070;2023-01-30T03:56:50;20.45;;;8.95;;
67747;SDS011;54543;50.712;6.070;2023-01-30T03:59:16;25.90;;;11.15;;
67747;SDS011;54543;50.712;6.070;2023-01-30T04:01:41;24.73;;;10.85;;
67747;SDS011;54543;50.712;6.070;2023-01-30T04:04:07;22.88;;;9.73;;
67747;SDS011;54543;50.712;6.070;2023-01-30T04:06:32;30.13;;;13.48;;
67747;SDS011;54543;50.712;6.070;2023-01-30T04:08:57;23.35;;;11.45;;
67747;SDS011;54543;50.712;6.070;2023-01-30T04:11:23;25.55;;;10.82;;
67747;SDS011;54543;50.712;6.070;2023-01-30T04:13:48;18.90;;;8.82;;
67747;SDS011;54543;50.712;6.070;2023-01-30T04:16:23;22.67;;;9.52;;
67747;SDS011;54543;50.712;6.070;2023-01-30T04:18:50;20.08;;;9.18;;
67747;SDS011;54543;50.712;6.070;2023-01-30T04:21:15;23.23;;;10.02;;
67747;SDS011;54543;50.712;6.070;2023-01-30T04:23:42;21.77;;;10.18;;
67747;SDS011;54543;50.712;6.070;2023-01-30T04:26:08;20.92;;;10.73;;
67747;SDS011;54543;50.712;6.070;2023-01-30T04:28:34;22.40;;;10.05;;
67747;SDS011;54543;50.712;6.070;2023-01-30T04:31:00;26.83;;;11.68;;
67747;SDS011;54543;50.712;6.070;2023-01-30T04:33:26;21.55;;;9.73;;
67747;SDS011;54543;50.712;6.070;2023-01-30T04:35:52;21.88;;;10.68;;
67747;SDS011;54543;50.712;6.070;2023-01-30T04:38:22;21.27;;;9.70;;
67747;SDS011;54543;50.712;6.070;2023-01-30T04:40:49;20.58;;;9.88;;
67747;SDS011;54543;50.712;6.070;2023-01-30T04:43:19;25.08;;;11.35;;
67747;SDS011;54543;50.712;6.070;2023-01-30T04:45:46;23.10;;;11.23;;
67747;SDS011;54543;50.712;6.070;2023-01-30T04:48:13;22.60;;;10.40;;
67747;SDS011;54543;50.712;6.070;2023-01-30T04:50:40;21.92;;;10.27;;
67747;SDS011;54543;50.712;6.070;2023-01-30T04:53:08;20.17;;;10.20;;
67747;SDS011;54543;50.712;6.070;2023-01-30T04:55:34;20.98;;;9.65;;
67747;SDS011;54543;50.712;6.070;2023-01-30T04:58:00;18.73;;;9.50;;
67747;SDS011;54543;50.712;6.070;2023-01-30T05:00:26;19.70;;;10.15;;
67747;SDS011;54543;50.712;6.070;2023-01-30T05:02:52;28.95;;;12.05;;
67747;SDS011;54543;50.712;6.070;2023-01-30T05:05:20;24.27;;;10.23;;
67747;SDS011;54543;50.712;6.070;2023-01-30T05:07:46;20.17;;;9.43;;
67747;SDS011;54543;50.712;6.070;2023-01-30T05:10:12;20.38;;;9.40;;
67747;SDS011;54543;50.712;6.070;2023-01-30T05:12:38;23.63;;;11.10;;
67747;SDS011;54543;50.712;6.070;2023-01-30T05:15:03;20.50;;;9.82;;
67747;SDS011;54543;50.712;6.070;2023-01-30T05:17:31;17.33;;;8.13;;
67747;SDS011;54543;50.712;6.070;2023-01-30T05:19:57;19.48;;;7.68;;
67747;SDS011;54543;50.712;6.070;2023-01-30T05:22:22;23.67;;;10.50;;
67747;SDS011;54543;50.712;6.070;2023-01-30T05:24:48;28.38;;;10.73;;
67747;SDS011;54543;50.712;6.070;2023-01-30T05:27:13;28.58;;;12.55;;
67747;SDS011;54543;50.712;6.070;2023-01-30T05:29:39;18.35;;;8.93;;
67747;SDS011;54543;50.712;6.070;2023-01-30T05:32:05;24.00;;;11.20;;
67747;SDS011;54543;50.712;6.070;2023-01-30T05:34:30;19.20;;;8.38;;
67747;SDS011;54543;50.712;6.070;2023-01-30T05:36:56;18.13;;;8.55;;
67747;SDS011;54543;50.712;6.070;2023-01-30T05:39:22;20.10;;;8.40;;
67747;SDS011;54543;50.712;6.070;2023-01-30T05:41:47;17.27;;;8.23;;
67747;SDS011;54543;50.712;6.070;2023-01-30T05:44:12;14.32;;;6.78;;
67747;SDS011;54543;50.712;6.070;2023-01-30T05:46:38;12.35;;;6.03;;
67747;SDS011;54543;50.712;6.070;2023-01-30T05:49:04;14.90;;;6.75;;
67747;SDS011;54543;50.712;6.070;2023-01-30T05:51:31;12.63;;;6.03;;
67747;SDS011;54543;50.712;6.070;2023-01-30T05:53:57;17.35;;;7.35;;
67747;SDS011;54543;50.712;6.070;2023-01-30T05:56:23;17.05;;;7.68;;
67747;SDS011;54543;50.712;6.070;2023-01-30T05:58:51;18.35;;;8.23;;
67747;SDS011;54543;50.712;6.070;2023-01-30T06:01:18;15.23;;;6.88;;
67747;SDS011;54543;50.712;6.070;2023-01-30T06:03:44;15.55;;;7.53;;
67747;SDS011;54543;50.712;6.070;2023-01-30T06:06:10;14.82;;;7.82;;
67747;SDS011;54543;50.712;6.070;2023-01-30T06:08:36;18.48;;;7.70;;
67747;SDS011;54543;50.712;6.070;2023-01-30T06:11:03;16.85;;;7.95;;
67747;SDS011;54543;50.712;6.070;2023-01-30T06:13:30;14.35;;;7.25;;
67747;SDS011;54543;50.712;6.070;2023-01-30T06:15:55;11.73;;;6.05;;
67747;SDS011;54543;50.712;6.070;2023-01-30T06:18:21;15.07;;;6.72;;
67747;SDS011;54543;50.712;6.070;2023-01-30T06:20:47;11.70;;;6.82;;
67747;SDS011;54543;50.712;6.070;2023-01-30T06:23:17;10.65;;;5.35;;
67747;SDS011;54543;50.712;6.070;2023-01-30T06:25:43;10.45;;;5.80;;
67747;SDS011;54543;50.712;6.070;2023-01-30T06:28:09;10.82;;;6.05;;
67747;SDS011;54543;50.712;6.070;2023-01-30T06:30:34;11.50;;;5.45;;
67747;SDS011;54543;50.712;6.070;2023-01-30T06:33:00;13.20;;;6.72;;
67747;SDS011;54543;50.712;6.070;2023-01-30T06:35:25;10.45;;;5.15;;
67747;SDS011;54543;50.712;6.070;2023-01-30T06:37:51;11.32;;;5.47;;
67747;SDS011;54543;50.712;6.070;2023-01-30T06:40:16;10.10;;;5.63;;
67747;SDS011;54543;50.712;6.070;2023-01-30T06:42:46;10.48;;;5.60;;
67747;SDS011;54543;50.712;6.070;2023-01-30T06:45:12;10.38;;;5.07;;
67747;SDS011;54543;50.712;6.070;2023-01-30T06:50:12;12.60;;;5.80;;
67747;SDS011;54543;50.712;6.070;2023-01-30T06:52:41;12.18;;;5.70;;
67747;SDS011;54543;50.712;6.070;2023-01-30T06:55:08;11.38;;;5.65;;
67747;SDS011;54543;50.712;6.070;2023-01-30T06:57:35;8.82;;;5.30;;
67747;SDS011;54543;50.712;6.070;2023-01-30T07:00:01;9.63;;;5.00;;
67747;SDS011;54543;50.712;6.070;2023-01-30T07:02:31;11.23;;;5.20;;
67747;SDS011;54543;50.712;6.070;2023-01-30T07:05:02;10.73;;;5.28;;
67747;SDS011;54543;50.712;6.070;2023-01-30T07:07:29;12.55;;;6.50;;
67747;SDS011;54543;50.712;6.070;2023-01-30T07:09:55;8.00;;;4.57;;
67747;SDS011;54543;50.712;6.070;2023-01-30T07:12:21;10.05;;;5.57;;
67747;SDS011;54543;50.712;6.070;2023-01-30T07:14:47;12.43;;;5.53;;
67747;SDS011;54543;50.712;6.070;2023-01-30T07:17:12;9.23;;;5.45;;
67747;SDS011;54543;50.712;6.070;2023-01-30T07:19:39;8.43;;;4.82;;
67747;SDS011;54543;50.712;6.070;2023-01-30T07:22:04;8.20;;;4.25;;
67747;SDS011;54543;50.712;6.070;2023-01-30T07:24:30;7.07;;;4.30;;
67747;SDS011;54543;50.712;6.070;2023-01-30T07:26:55;9.32;;;4.45;;
67747;SDS011;54543;50.712;6.070;2023-01-30T07:29:21;10.05;;;5.30;;
67747;SDS011;54543;50.712;6.070;2023-01-30T07:31:46;13.02;;;6.60;;
67747;SDS011;54543;50.712;6.070;2023-01-30T07:34:12;13.77;;;6.28;;
67747;SDS011;54543;50.712;6.070;2023-01-30T07:36:38;13.38;;;6.18;;
67747;SDS011;54543;50.712;6.070;2023-01-30T07:39:04;12.57;;;5.82;;
67747;SDS011;54543;50.712;6.070;2023-01-30T07:41:30;13.25;;;6.40;;
67747;SDS011;54543;50.712;6.070;2023-01-30T07:43:55;14.00;;;6.80;;
67747;SDS011;54543;50.712;6.070;2023-01-30T07:46:21;15.93;;;7.95;;
67747;SDS011;54543;50.712;6.070;2023-01-30T07:48:46;16.42;;;8.70;;
67747;SDS011;54543;50.712;6.070;2023-01-30T07:51:12;15.43;;;7.43;;
67747;SDS011;54543;50.712;6.070;2023-01-30T07:53:38;13.57;;;6.70;;
67747;SDS011;54543;50.712;6.070;2023-01-30T07:56:11;15.00;;;7.35;;
67747;SDS011;54543;50.712;6.070;2023-01-30T07:58:38;14.97;;;7.50;;
67747;SDS011;54543;50.712;6.070;2023-01-30T08:01:04;17.77;;;7.82;;
67747;SDS011;54543;50.712;6.070;2023-01-30T08:03:30;11.30;;;5.82;;
67747;SDS011;54543;50.712;6.070;2023-01-30T08:05:55;11.90;;;6.18;;
67747;SDS011;54543;50.712;6.070;2023-01-30T08:08:21;15.90;;;7.47;;
67747;SDS011;54543;50.712;6.070;2023-01-30T08:10:49;12.90;;;6.20;;
67747;SDS011;54543;50.712;6.070;2023-01-30T08:13:15;12.20;;;5.78;;
67747;SDS011;54543;50.712;6.070;2023-01-30T08:15:40;10.10;;;4.85;;
67747;SDS011;54543;50.712;6.070;2023-01-30T08:18:06;14.27;;;7.10;;
67747;SDS011;54543;50.712;6.070;2023-01-30T08:20:31;15.65;;;7.00;;
67747;SDS011;54543;50.712;6.070;2023-01-30T08:22:57;14.32;;;8.07;;
67747;SDS011;54543;50.712;6.070;2023-01-30T08:25:24;16.65;;;7.43;;
67747;SDS011;54543;50.712;6.070;2023-01-30T08:27:50;19.73;;;8.23;;
67747;SDS011;54543;50.712;6.070;2023-01-30T08:30:16;20.88;;;9.23;;
67747;SDS011;54543;50.712;6.070;2023-01-30T08:32:42;15.02;;;7.55;;
67747;SDS011;54543;50.712;6.070;2023-01-30T08:35:08;26.00;;;10.07;;
67747;SDS011;54543;50.712;6.070;2023-01-30T08:37:34;12.90;;;7.38;;
67747;SDS011;54543;50.712;6.070;2023-01-30T08:40:00;20.30;;;9.45;;
67747;SDS011;54543;50.712;6.070;2023-01-30T08:42:25;14.75;;;7.97;;
67747;SDS011;54543;50.712;6.070;2023-01-30T08:44:51;23.52;;;10.63;;
67747;SDS011;54543;50.712;6.070;2023-01-30T08:47:16;18.30;;;8.98;;
67747;SDS011;54543;50.712;6.070;2023-01-30T08:49:42;21.17;;;9.30;;
67747;SDS011;54543;50.712;6.070;2023-01-30T08:52:09;17.98;;;7.63;;
67747;SDS011;54543;50.712;6.070;2023-01-30T08:54:34;15.80;;;8.35;;
67747;SDS011;54543;50.712;6.070;2023-01-30T08:57:00;21.50;;;9.13;;
67747;SDS011;54543;50.712;6.070;2023-01-30T08:59:25;15.40;;;7.45;;
67747;SDS011;54543;50.712;6.070;2023-01-30T09:01:51;16.05;;;7.40;;
67747;SDS011;54543;50.712;6.070;2023-01-30T09:04:17;16.48;;;7.40;;
67747;SDS011;54543;50.712;6.070;2023-01-30T09:06:42;15.27;;;7.50;;
67747;SDS011;54543;50.712;6.070;2023-01-30T09:09:08;14.93;;;6.68;;
67747;SDS011;54543;50.712;6.070;2023-01-30T09:11:33;16.50;;;7.85;;
67747;SDS011;54543;50.712;6.070;2023-01-30T09:13:59;13.75;;;7.97;;
67747;SDS011;54543;50.712;6.070;2023-01-30T09:16:24;15.48;;;7.82;;
67747;SDS011;54543;50.712;6.070;2023-01-30T09:18:50;15.38;;;8.32;;
67747;SDS011;54543;50.712;6.070;2023-01-30T09:21:15;15.88;;;7.32;;
67747;SDS011;54543;50.712;6.070;2023-01-30T09:23:41;12.90;;;6.70;;
67747;SDS011;54543;50.712;6.070;2023-01-30T09:26:07;14.82;;;6.13;;
67747;SDS011;54543;50.712;6.070;2023-01-30T09:28:32;12.98;;;6.50;;
67747;SDS011;54543;50.712;6.070;2023-01-30T09:30:59;11.15;;;5.43;;
67747;SDS011;54543;50.712;6.070;2023-01-30T09:33:25;18.67;;;6.45;;
67747;SDS011;54543;50.712;6.070;2023-01-30T09:35:51;12.77;;;6.00;;
67747;SDS011;54543;50.712;6.070;2023-01-30T09:38:17;10.68;;;4.97;;
67747;SDS011;54543;50.712;6.070;2023-01-30T09:51:29;14.85;;;5.53;;
67747;SDS011;54543;50.712;6.070;2023-01-30T09:54:16;10.38;;;5.40;;
67747;SDS011;54543;50.712;6.070;2023-01-30T09:56:50;9.35;;;4.85;;
67747;SDS011;54543;50.712;6.070;2023-01-30T09:59:22;13.38;;;5.28;;
67747;SDS011;54543;50.712;6.070;2023-01-30T10:04:34;10.25;;;5.00;;
67747;SDS011;54543;50.712;6.070;2023-01-30T10:20:29;19.30;;;4.78;;
67747;SDS011;54543;50.712;6.070;2023-01-30T10:25:47;9.30;;;4.57;;
67747;SDS011;54543;50.712;6.070;2023-01-30T10:28:29;8.65;;;4.28;;
67747;SDS011;54543;50.712;6.070;2023-01-30T10:31:09;17.27;;;5.43;;
67747;SDS011;54543;50.712;6.070;2023-01-30T10:33:48;14.20;;;4.47;;
67747;SDS011;54543;50.712;6.070;2023-01-30T10:36:31;12.95;;;5.38;;
67747;SDS011;54543;50.712;6.070;2023-01-30T10:39:03;10.90;;;4.32;;
67747;SDS011;54543;50.712;6.070;2023-01-30T10:41:54;12.00;;;4.63;;
67747;SDS011;54543;50.712;6.070;2023-01-30T10:44:43;7.35;;;3.88;;
67747;SDS011;54543;50.712;6.070;2023-01-30T10:50:01;11.93;;;4.90;;
67747;SDS011;54543;50.712;6.070;2023-01-30T11:03:25;7.82;;;3.53;;
67747;SDS011;54543;50.712;6.070;2023-01-30T11:06:00;10.73;;;3.85;;
67747;SDS011;54543;50.712;6.070;2023-01-30T11:08:31;10.18;;;4.05;;
67747;SDS011;54543;50.712;6.070;2023-01-30T11:10:58;11.05;;;4.85;;
67747;SDS011;54543;50.712;6.070;2023-01-30T11:13:31;7.63;;;3.15;;
67747;SDS011;54543;50.712;6.070;2023-01-30T11:15:58;10.50;;;4.40;;
67747;SDS011;54543;50.712;6.070;2023-01-30T11:18:28;10.48;;;3.45;;
67747;SDS011;54543;50.712;6.070;2023-01-30T11:21:02;10.77;;;3.35;;
67747;SDS011;54543;50.712;6.070;2023-01-30T11:26:00;11.95;;;3.00;;
67747;SDS011;54543;50.712;6.070;2023-01-30T11:28:27;10.50;;;3.22;;
67747;SDS011;54543;50.712;6.070;2023-01-30T11:31:13;13.02;;;3.10;;
67747;SDS011;54543;50.712;6.070;2023-01-30T11:33:59;9.35;;;3.60;;
67747;SDS011;54543;50.712;6.070;2023-01-30T11:36:31;10.80;;;3.00;;
67747;SDS011;54543;50.712;6.070;2023-01-30T11:39:00;12.02;;;2.70;;
67747;SDS011;54543;50.712;6.070;2023-01-30T11:41:28;9.15;;;2.72;;
67747;SDS011;54543;50.712;6.070;2023-01-30T11:43:58;9.02;;;2.03;;
67747;SDS011;54543;50.712;6.070;2023-01-30T11:46:29;16.48;;;3.03;;
67747;SDS011;54543;50.712;6.070;2023-01-30T11:49:02;10.43;;;2.78;;
67747;SDS011;54543;50.712;6.070;2023-01-30T11:51:33;15.88;;;3.33;;
67747;SDS011;54543;50.712;6.070;2023-01-30T11:54:03;10.30;;;2.97;;
67747;SDS011;54543;50.712;6.070;2023-01-30T11:56:37;11.70;;;2.95;;
67747;SDS011;54543;50.712;6.070;2023-01-30T11:59:07;9.52;;;3.83;;
67747;SDS011;54543;50.712;6.070;2023-01-30T12:01:41;9.70;;;2.88;;
67747;SDS011;54543;50.712;6.070;2023-01-30T12:04:08;8.18;;;3.05;;
67747;SDS011;54543;50.712;6.070;2023-01-30T12:06:37;10.25;;;2.78;;
67747;SDS011;54543;50.712;6.070;2023-01-30T12:09:05;10.73;;;3.15;;
67747;SDS011;54543;50.712;6.070;2023-01-30T12:11:58;12.85;;;3.60;;
67747;SDS011;54543;50.712;6.070;2023-01-30T12:14:43;9.70;;;3.80;;
67747;SDS011;54543;50.712;6.070;2023-01-30T12:17:26;13.25;;;3.13;;
67747;SDS011;54543;50.712;6.070;2023-01-30T12:20:11;6.40;;;2.40;;
67747;SDS011;54543;50.712;6.070;2023-01-30T12:22:48;9.15;;;2.40;;
67747;SDS011;54543;50.712;6.070;2023-01-30T12:25:26;7.47;;;2.35;;
67747;SDS011;54543;50.712;6.070;2023-01-30T12:31:10;13.10;;;2.80;;
67747;SDS011;54543;50.712;6.070;2023-01-30T12:33:44;9.48;;;2.65;;
67747;SDS011;54543;50.712;6.070;2023-01-30T12:41:33;6.55;;;2.08;;
67747;SDS011;54543;50.712;6.070;2023-01-30T12:44:13;9.20;;;2.97;;
67747;SDS011;54543;50.712;6.070;2023-01-30T12:58:23;13.95;;;3.25;;
67747;SDS011;54543;50.712;6.070;2023-01-30T13:03:48;7.28;;;2.67;;
67747;SDS011;54543;50.712;6.070;2023-01-30T13:09:34;9.85;;;3.45;;
67747;SDS011;54543;50.712;6.070;2023-01-30T13:14:45;5.88;;;2.08;;
67747;SDS011;54543;50.712;6.070;2023-01-30T13:20:12;10.73;;;2.08;;
67747;SDS011;54543;50.712;6.070;2023-01-30T13:23:05;8.90;;;2.88;;
67747;SDS011;54543;50.712;6.070;2023-01-30T13:28:22;5.43;;;2.20;;
67747;SDS011;54543;50.712;6.070;2023-01-30T13:30:51;8.55;;;2.00;;
67747;SDS011;54543;50.712;6.070;2023-01-30T13:33:29;14.60;;;2.80;;
67747;SDS011;54543;50.712;6.070;2023-01-30T13:41:57;10.45;;;2.53;;
67747;SDS011;54543;50.712;6.070;2023-01-30T13:44:26;11.60;;;2.60;;
67747;SDS011;54543;50.712;6.070;2023-01-30T13:47:07;6.82;;;2.78;;
67747;SDS011;54543;50.712;6.070;2023-01-30T13:52:34;7.47;;;2.03;;
67747;SDS011;54543;50.712;6.070;2023-01-30T13:55:11;10.68;;;2.63;;
67747;SDS011;54543;50.712;6.070;2023-01-30T13:57:52;8.35;;;2.28;;
67747;SDS011;54543;50.712;6.070;2023-01-30T14:00:29;8.80;;;2.35;;
67747;SDS011;54543;50.712;6.070;2023-01-30T14:08:27;11.90;;;2.83;;
67747;SDS011;54543;50.712;6.070;2023-01-30T14:10:56;5.22;;;1.85;;
67747;SDS011;54543;50.712;6.070;2023-01-30T14:13:23;6.32;;;2.20;;
67747;SDS011;54543;50.712;6.070;2023-01-30T14:15:54;10.23;;;2.30;;
67747;SDS011;54543;50.712;6.070;2023-01-30T14:18:22;8.65;;;2.42;;
67747;SDS011;54543;50.712;6.070;2023-01-30T14:20:51;6.57;;;2.15;;
67747;SDS011;54543;50.712;6.070;2023-01-30T14:23:35;11.93;;;2.90;;
67747;SDS011;54543;50.712;6.070;2023-01-30T14:26:01;7.30;;;1.98;;
67747;SDS011;54543;50.712;6.070;2023-01-30T14:31:06;8.10;;;2.00;;
67747;SDS011;54543;50.712;6.070;2023-01-30T14:33:33;10.15;;;2.05;;
67747;SDS011;54543;50.712;6.070;2023-01-30T14:38:33;9.70;;;2.47;;
67747;SDS011;54543;50.712;6.070;2023-01-30T14:46:52;5.80;;;2.22;;
67747;SDS011;54543;50.712;6.070;2023-01-30T15:04:19;12.13;;;2.38;;
67747;SDS011;54543;50.712;6.070;2023-01-30T15:06:45;9.23;;;2.30;;
67747;SDS011;54543;50.712;6.070;2023-01-30T15:09:16;10.13;;;2.38;;
67747;SDS011;54543;50.712;6.070;2023-01-30T15:11:43;8.35;;;2.85;;
67747;SDS011;54543;50.712;6.070;2023-01-30T15:14:27;14.77;;;3.53;;
67747;SDS011;54543;50.712;6.070;2023-01-30T15:19:45;7.78;;;2.50;;
67747;SDS011;54543;50.712;6.070;2023-01-30T15:22:33;8.32;;;3.08;;
67747;SDS011;54543;50.712;6.070;2023-01-30T15:30:29;9.80;;;2.30;;
67747;SDS011;54543;50.712;6.070;2023-01-30T15:33:21;11.63;;;2.65;;
67747;SDS011;54543;50.712;6.070;2023-01-30T15:35:48;13.20;;;2.75;;
67747;SDS011;54543;50.712;6.070;2023-01-30T15:40:49;8.00;;;3.10;;
67747;SDS011;54543;50.712;6.070;2023-01-30T15:48:56;11.98;;;2.50;;
67747;SDS011;54543;50.712;6.070;2023-01-30T15:51:33;13.00;;;2.85;;
67747;SDS011;54543;50.712;6.070;2023-01-30T15:54:00;8.52;;;3.63;;
67747;SDS011;54543;50.712;6.070;2023-01-30T15:56:32;10.77;;;3.13;;
67747;SDS011;54543;50.712;6.070;2023-01-30T15:58:58;6.93;;;2.80;;
67747;SDS011;54543;50.712;6.070;2023-01-30T16:01:26;8.27;;;2.13;;
67747;SDS011;54543;50.712;6.070;2023-01-30T16:03:52;10.95;;;2.80;;
67747;SDS011;54543;50.712;6.070;2023-01-30T16:09:33;9.73;;;2.55;;
67747;SDS011;54543;50.712;6.070;2023-01-30T16:11:51;5.80;;;2.42;;
67747;SDS011;54543;50.712;6.070;2023-01-30T16:14:18;6.47;;;2.80;;
67747;SDS011;54543;50.712;6.070;2023-01-30T16:19:30;6.90;;;1.95;;
67747;SDS011;54543;50.712;6.070;2023-01-30T16:21:59;7.93;;;2.40;;
67747;SDS011;54543;50.712;6.070;2023-01-30T16:24:28;11.82;;;2.35;;
67747;SDS011;54543;50.712;6.070;2023-01-30T16:27:05;7.13;;;2.00;;
67747;SDS011;54543;50.712;6.070;2023-01-30T16:29:33;9.63;;;3.17;;
67747;SDS011;54543;50.712;6.070;2023-01-30T16:32:26;7.95;;;1.95;;
67747;SDS011;54543;50.712;6.070;2023-01-30T16:37:52;7.45;;;2.08;;
67747;SDS011;54543;50.712;6.070;2023-01-30T16:40:26;7.47;;;1.90;;
67747;SDS011;54543;50.712;6.070;2023-01-30T16:43:17;9.95;;;2.05;;
67747;SDS011;54543;50.712;6.070;2023-01-30T16:53:24;5.50;;;2.10;;
67747;SDS011;54543;50.712;6.070;2023-01-30T16:55:56;5.18;;;1.77;;
67747;SDS011;54543;50.712;6.070;2023-01-30T16:58:24;8.13;;;1.92;;
67747;SDS011;54543;50.712;6.070;2023-01-30T17:00:56;5.40;;;1.50;;
67747;SDS011;54543;50.712;6.070;2023-01-30T17:03:33;5.53;;;1.83;;
67747;SDS011;54543;50.712;6.070;2023-01-30T17:06:02;9.15;;;2.00;;
67747;SDS011;54543;50.712;6.070;2023-01-30T17:08:46;8.63;;;2.67;;
67747;SDS011;54543;50.712;6.070;2023-01-30T17:11:28;9.30;;;2.40;;
67747;SDS011;54543;50.712;6.070;2023-01-30T17:16:58;8.32;;;2.17;;
67747;SDS011;54543;50.712;6.070;2023-01-30T17:19:25;4.15;;;2.08;;
67747;SDS011;54543;50.712;6.070;2023-01-30T17:21:51;8.90;;;2.20;;
67747;SDS011;54543;50.712;6.070;2023-01-30T17:24:19;7.15;;;2.00;;
67747;SDS011;54543;50.712;6.070;2023-01-30T17:26:47;10.43;;;2.40;;
67747;SDS011;54543;50.712;6.070;2023-01-30T17:29:14;7.30;;;1.90;;
67747;SDS011;54543;50.712;6.070;2023-01-30T17:31:50;8.48;;;2.25;;
67747;SDS011;54543;50.712;6.070;2023-01-30T17:34:16;6.40;;;1.90;;
67747;SDS011;54543;50.712;6.070;2023-01-30T17:36:44;7.68;;;1.77;;
67747;SDS011;54543;50.712;6.070;2023-01-30T17:39:11;10.05;;;1.80;;
67747;SDS011;54543;50.712;6.070;2023-01-30T17:41:38;8.40;;;1.52;;
67747;SDS011;54543;50.712;6.070;2023-01-30T17:44:05;8.95;;;2.13;;
67747;SDS011;54543;50.712;6.070;2023-01-30T17:46:34;11.32;;;2.13;;
67747;SDS011;54543;50.712;6.070;2023-01-30T17:49:14;6.38;;;2.17;;
67747;SDS011;54543;50.712;6.070;2023-01-30T17:51:41;9.27;;;2.33;;
67747;SDS011;54543;50.712;6.070;2023-01-30T17:54:07;7.82;;;2.13;;